Time;durP1;ratioP1;P1;durP2;ratioP2;P2;SDS_P1;SDS_P2;PMS_P1;PMS_P2;Temp;Humidity;BMP_temperature;BMP_pressure;BME280_temperature;BME280_humidity;BME280_pressure;Samples;Min_cycle;Max_cycle;Signal;HPM_P1;HPM_P2
2023/04/25 00:01:12;;;;;;;3.15;1.40;;;;;;;20.88;53.76;100179.41;5033441;28;20037;-57
2023/04/25 00:03:40;;;;;;;2.55;1.10;;;;;;;20.88;53.73;100182.94;5033398;28;20072;-57
2023/04/25 00:06:08;;;;;;;2.55;1.10;;;;;;;20.87;53.81;100175.03;5033487;28;20045;-57
2023/04/25 00:08:35;;;;;;;5.07;1.40;;;;;;;20.87;53.96;100183.13;5033378;28;20072;-57
2023/04/25 00:11:03;;;;;;;1.77;1.00;;;;;;;20.87;53.80;100180.41;5033436;28;20503;-57
2023/04/25 00:13:30;;;;;;;2.95;1.08;;;;;;;20.86;53.91;100184.09;5033428;28;20038;-57
2023/04/25 00:15:57;;;;;;;2.83;1.20;;;;;;;20.86;53.66;100181.41;5033280;28;20113;-57
2023/04/25 00:18:28;;;;;;;1.85;0.77;;;;;;;20.86;53.80;100186.78;5033344;28;20060;-57
2023/04/25 00:20:55;;;;;;;2.72;1.15;;;;;;;20.85;53.79;100177.88;5033460;28;20471;-56
2023/04/25 00:23:23;;;;;;;3.10;1.23;;;;;;;20.85;53.79;100179.72;5033300;28;20049;-56
2023/04/25 00:25:51;;;;;;;4.78;1.00;;;;;;;20.85;53.87;100174.34;5033360;28;20045;-56
2023/04/25 00:28:18;;;;;;;3.40;1.20;;;;;;;20.85;53.85;100174.34;5033203;28;20400;-57
2023/04/25 00:30:46;;;;;;;2.95;0.90;;;;;;;20.85;53.77;100172.50;5032124;28;20049;-56
2023/04/25 00:33:13;;;;;;;4.28;1.20;;;;;;;20.84;53.83;100178.88;5037119;28;20045;-56
2023/04/25 00:35:40;;;;;;;6.82;1.38;;;;;;;20.83;53.79;100179.03;5036951;28;20052;-56
2023/04/25 00:38:08;;;;;;;2.65;1.23;;;;;;;20.84;53.83;100178.88;5037232;28;20049;-57
2023/04/25 00:40:35;;;;;;;3.38;1.17;;;;;;;20.83;53.87;100174.50;5036961;28;20495;-57
2023/04/25 00:43:02;;;;;;;3.88;1.25;;;;;;;20.84;53.89;100167.28;5036496;28;20033;-57
2023/04/25 00:45:30;;;;;;;3.28;1.42;;;;;;;20.82;53.76;100170.09;5036403;28;20072;-56
2023/04/25 00:47:57;;;;;;;1.85;1.00;;;;;;;20.83;53.81;100176.34;5036778;28;20052;-56
2023/04/25 00:50:25;;;;;;;4.85;1.40;;;;;;;20.83;53.69;100177.19;5035435;28;20072;-57
2023/04/25 00:52:52;;;;;;;3.17;1.08;;;;;;;20.82;53.72;100169.25;5035319;28;20530;-57
2023/04/25 00:55:19;;;;;;;2.95;1.08;;;;;;;20.82;53.82;100170.09;5037148;28;20054;-57
2023/04/25 00:57:47;;;;;;;1.88;0.80;;;;;;;20.82;53.75;100175.47;5037237;28;20053;-57
2023/04/25 01:00:15;;;;;;;2.95;0.90;;;;;;;20.82;53.72;100174.66;5035243;28;20060;-57
2023/04/25 01:02:45;;;;;;;3.72;1.17;;;;;;;20.81;53.77;100176.50;5037597;28;20054;-57
2023/04/25 01:05:13;;;;;;;2.60;0.93;;;;;;;20.80;53.73;100169.44;5036555;28;20068;-56
2023/04/25 01:07:40;;;;;;;2.60;1.08;;;;;;;20.80;53.98;100165.91;5035422;28;20377;-56
2023/04/25 01:10:08;;;;;;;2.72;1.42;;;;;;;20.79;53.82;100173.13;5036450;28;20050;-57
2023/04/25 01:12:37;;;;;;;2.55;1.02;;;;;;;20.80;53.69;100174.81;5034877;28;20076;-56
2023/04/25 01:15:05;;;;;;;1.77;0.82;;;;;;;20.80;53.70;100174.81;5035440;28;20050;-57
2023/04/25 01:17:34;;;;;;;4.13;1.02;;;;;;;20.80;53.65;100168.59;5036843;28;20393;-57
2023/04/25 01:20:05;;;;;;;2.80;1.13;;;;;;;20.80;53.80;100166.75;5036004;28;20052;-57
2023/04/25 01:22:33;;;;;;;4.00;1.23;;;;;;;20.79;53.77;100170.44;5035092;28;20057;-56
2023/04/25 01:25:00;;;;;;;3.00;0.80;;;;;;;20.79;53.64;100173.13;5051971;28;20490;-56
2023/04/25 01:27:28;;;;;;;2.15;0.88;;;;;;;20.80;53.63;100168.59;5054971;28;20123;-56
2023/04/25 01:29:56;;;;;;;3.05;0.90;;;;;;;20.79;53.71;100170.44;5056096;28;20052;-57
2023/04/25 01:32:26;;;;;;;3.22;1.20;;;;;;;20.79;53.58;100161.53;5054506;28;20060;-56
2023/04/25 01:34:54;;;;;;;2.30;1.05;;;;;;;20.79;53.68;100158.84;5055967;28;20037;-57
2023/04/25 01:37:22;;;;;;;3.92;1.00;;;;;;;20.79;53.68;100170.44;5054900;28;20395;-56
2023/04/25 01:39:50;;;;;;;1.70;0.80;;;;;;;20.77;53.54;100156.28;5054899;28;20503;-57
2023/04/25 01:42:18;;;;;;;1.52;0.75;;;;;;;20.78;53.66;100163.34;5054720;28;20049;-57
2023/04/25 01:44:45;;;;;;;2.67;0.90;;;;;;;20.78;53.54;100159.81;5033536;28;20369;-57
2023/04/25 01:47:13;;;;;;;2.85;0.80;;;;;;;20.78;53.60;100162.50;5034670;28;20104;-57
2023/04/25 01:49:40;;;;;;;2.50;1.10;;;;;;;20.78;53.57;100167.88;5034395;28;20060;-57
2023/04/25 01:52:08;;;;;;;2.17;1.08;;;;;;;20.77;53.76;100167.06;5034319;28;20053;-56
2023/04/25 01:54:35;;;;;;;2.50;1.13;;;;;;;20.76;53.64;100168.06;5034529;28;20057;-56
2023/04/25 01:57:03;;;;;;;2.03;0.77;;;;;;;20.77;53.58;100180.50;5033970;28;20522;-57
2023/04/25 01:59:33;;;;;;;3.08;1.02;;;;;;;20.77;53.65;100174.28;5034297;28;20053;-56
2023/04/25 02:02:09;;;;;;;2.20;0.80;;;;;;;20.78;53.58;100178.66;5035780;28;20061;-57
2023/04/25 02:04:37;;;;;;;1.63;0.80;;;;;;;20.78;53.47;100181.34;5034183;28;20045;-56
2023/04/25 02:07:04;;;;;;;2.20;0.98;;;;;;;20.77;53.47;100182.34;5034359;28;20049;-56
2023/04/25 02:09:42;;;;;;;3.42;1.10;;;;;;;20.78;53.47;100173.28;5034106;28;20054;-56
2023/04/25 02:12:11;;;;;;;3.55;0.90;;;;;;;20.77;53.45;100171.59;5034079;28;20053;-56
2023/04/25 02:14:57;;;;;;;3.33;0.93;;;;;;;20.77;53.48;100163.53;5033994;28;20049;-56
2023/04/25 02:17:33;;;;;;;2.97;1.35;;;;;;;20.76;53.49;100162.69;5034299;28;20080;-56
2023/04/25 02:20:01;;;;;;;3.58;1.00;;;;;;;20.76;53.60;100164.53;5033988;28;20506;-57
2023/04/25 02:22:30;;;;;;;3.67;1.00;;;;;;;20.76;53.41;100156.47;5034347;28;20391;-56
2023/04/25 02:24:57;;;;;;;2.45;0.93;;;;;;;20.75;53.50;100152.94;5034985;28;20053;-57
2023/04/25 02:27:25;;;;;;;3.17;1.02;;;;;;;20.74;53.46;100157.47;5033946;28;20049;-56
2023/04/25 02:29:52;;;;;;;2.78;1.00;;;;;;;20.74;53.46;100153.91;5033821;28;20066;-57
2023/04/25 02:32:20;;;;;;;3.00;1.45;;;;;;;20.74;53.39;100153.91;5033774;28;20045;-57
2023/04/25 02:34:47;;;;;;;5.25;1.17;;;;;;;20.74;53.49;100152.09;5033896;28;20045;-56
2023/04/25 02:37:15;;;;;;;3.40;1.35;;;;;;;20.73;53.25;100153.06;5034644;28;20057;-57
2023/04/25 02:39:45;;;;;;;4.40;1.02;;;;;;;20.74;53.43;100151.22;5033351;28;20056;-57
2023/04/25 02:42:12;;;;;;;2.58;1.25;;;;;;;20.72;53.37;100156.75;5033319;28;20060;-57
2023/04/25 02:44:39;;;;;;;4.10;1.10;;;;;;;20.73;53.29;100157.59;5040660;28;20037;-57
2023/04/25 02:47:07;;;;;;;3.78;1.20;;;;;;;20.73;53.43;100168.38;5033326;28;20057;-57
2023/04/25 02:49:34;;;;;;;2.42;1.13;;;;;;;20.73;53.22;100163.00;5034522;28;20483;-57
2023/04/25 02:52:02;;;;;;;5.65;1.17;;;;;;;20.72;53.29;100167.53;5032877;28;20057;-57
2023/04/25 02:54:30;;;;;;;2.30;1.00;;;;;;;20.72;53.19;100169.38;5048796;28;20052;-56
2023/04/25 02:56:58;;;;;;;2.58;1.17;;;;;;;20.72;53.18;100164.00;5033488;28;20377;-56
2023/04/25 02:59:30;;;;;;;2.50;1.03;;;;;;;20.72;53.27;100154.06;5033669;28;20057;-57
2023/04/25 03:01:57;;;;;;;3.95;1.15;;;;;;;20.71;53.23;100162.31;5033118;28;20298;-56
2023/04/25 03:04:25;;;;;;;4.68;1.30;;;;;;;20.71;53.23;100162.31;5049261;28;20501;-56
2023/04/25 03:06:53;;;;;;;2.38;1.10;;;;;;;20.71;53.46;100163.16;5032584;28;20058;-56
2023/04/25 03:09:21;;;;;;;2.65;1.20;;;;;;;20.71;53.01;100149.72;5016836;28;20053;-57
2023/04/25 03:11:49;;;;;;;2.90;1.05;;;;;;;20.70;52.97;100148.03;5032433;28;20054;-57
2023/04/25 03:14:17;;;;;;;3.53;1.30;;;;;;;20.71;53.05;100143.50;5032879;28;20399;-57
2023/04/25 03:16:45;;;;;;;3.45;1.10;;;;;;;20.70;53.03;100134.59;5034121;28;20046;-57
2023/04/25 03:19:12;;;;;;;4.70;1.65;;;;;;;20.69;53.04;100135.56;5034097;28;20045;-57
2023/04/25 03:21:39;;;;;;;2.53;1.33;;;;;;;20.69;52.96;100132.88;5048777;28;20053;-56
2023/04/25 03:24:07;;;;;;;2.33;1.00;;;;;;;20.68;52.95;100139.25;5034348;28;20049;-56
2023/04/25 03:26:34;;;;;;;3.05;1.15;;;;;;;20.69;53.10;100140.09;5052598;28;20047;-56
2023/04/25 03:29:01;;;;;;;2.72;1.25;;;;;;;20.68;52.91;100136.56;5053963;28;20048;-57
2023/04/25 03:31:29;;;;;;;4.05;1.17;;;;;;;20.68;52.96;100125.81;5052397;28;20055;-57
2023/04/25 03:33:56;;;;;;;2.20;0.95;;;;;;;20.68;52.93;100130.34;5052404;28;20392;-57
2023/04/25 03:36:24;;;;;;;2.92;1.30;;;;;;;20.67;52.87;100126.81;5052281;28;20060;-56
2023/04/25 03:38:51;;;;;;;4.78;1.25;;;;;;;20.67;52.69;100118.75;5053459;28;20064;-57
2023/04/25 03:41:20;;;;;;;2.92;0.98;;;;;;;20.67;52.93;100118.75;5052522;28;20053;-56
2023/04/25 03:43:59;;;;;;;2.95;1.10;;;;;;;20.67;52.66;100107.16;5052193;28;20053;-57
2023/04/25 03:46:27;;;;;;;3.17;1.20;;;;;;;20.67;52.86;100110.69;5034553;28;20030;-56
2023/04/25 03:48:54;;;;;;;2.55;1.10;;;;;;;20.66;52.94;100110.81;5032480;28;20050;-57
2023/04/25 03:51:27;;;;;;;3.25;1.15;;;;;;;20.65;52.84;100112.66;5032249;28;20057;-56
2023/04/25 03:53:55;;;;;;;2.25;1.15;;;;;;;20.66;52.68;100121.56;5033518;28;20045;-57
2023/04/25 03:56:41;;;;;;;2.80;1.23;;;;;;;20.66;52.79;100118.88;5040281;28;20095;-57
2023/04/25 03:59:17;;;;;;;2.05;1.05;;;;;;;20.65;52.64;100125.28;5032854;28;20049;-57
2023/04/25 04:01:45;;;;;;;2.75;1.50;;;;;;;20.65;52.97;100120.75;5032527;28;20056;-57
2023/04/25 04:04:12;;;;;;;3.28;1.33;;;;;;;20.66;52.76;100122.44;5032368;28;20064;-57
2023/04/25 04:06:42;;;;;;;2.45;1.10;;;;;;;20.66;53.02;100108.13;5033863;28;20056;-57
2023/04/25 04:09:15;;;;;;;3.13;1.10;;;;;;;20.66;52.76;100113.50;5035797;28;20056;-56
2023/04/25 04:11:44;;;;;;;2.72;1.30;;;;;;;20.66;52.98;100105.44;5036093;28;20068;-57
2023/04/25 04:14:11;;;;;;;2.00;0.90;;;;;;;20.65;52.74;100109.13;5036035;28;20053;-57
2023/04/25 04:16:43;;;;;;;3.65;1.02;;;;;;;20.64;52.94;100110.16;5036305;28;20494;-56
2023/04/25 04:19:11;;;;;;;1.77;1.00;;;;;;;20.64;52.68;100112.84;5036267;28;20053;-57
2023/04/25 04:21:42;;;;;;;2.50;1.13;;;;;;;20.63;52.82;100112.00;5035584;28;20045;-56
2023/04/25 04:24:10;;;;;;;2.25;1.00;;;;;;;20.63;52.88;100120.06;5036284;28;20061;-57
2023/04/25 04:27:00;;;;;;;1.60;0.82;;;;;;;20.63;52.90;100117.38;5036801;28;20061;-56
2023/04/25 04:29:36;;;;;;;2.97;1.27;;;;;;;20.62;52.87;100121.06;5036140;28;20046;-56
2023/04/25 04:32:10;;;;;;;1.77;0.93;;;;;;;20.62;52.80;100139.03;5036408;28;20045;-57
2023/04/25 04:34:39;;;;;;;3.08;1.20;;;;;;;20.62;52.83;100136.34;5035647;28;20058;-56
2023/04/25 04:37:07;;;;;;;2.85;1.30;;;;;;;20.61;52.72;100132.81;5035827;28;20052;-56
2023/04/25 04:39:36;;;;;;;1.95;1.15;;;;;;;20.61;52.41;100138.19;5035544;28;20412;-56
2023/04/25 04:42:11;;;;;;;4.45;1.13;;;;;;;20.61;52.83;100143.56;5035650;28;20054;-56
2023/04/25 04:44:54;;;;;;;1.80;0.93;;;;;;;20.61;52.82;100134.66;5045950;28;20502;-56
2023/04/25 04:47:42;;;;;;;3.05;1.30;;;;;;;20.60;52.67;100147.25;5035715;28;20053;-56
2023/04/25 04:50:35;;;;;;;1.98;1.10;;;;;;;20.62;52.71;100157.84;5035707;28;20383;-55
2023/04/25 04:53:22;;;;;;;2.60;1.13;;;;;;;20.60;52.59;100165.25;5035654;28;20057;-55
2023/04/25 04:55:52;;;;;;;2.33;0.98;;;;;;;20.61;52.70;100169.63;5036708;28;20057;-56
2023/04/25 04:58:33;;;;;;;3.00;1.40;;;;;;;20.60;52.53;100165.25;5036651;28;20065;-56
2023/04/25 05:01:23;;;;;;;2.55;1.20;;;;;;;20.61;52.45;100166.94;5037196;28;20061;-56
2023/04/25 05:04:00;;;;;;;3.10;1.50;;;;;;;20.60;52.49;100173.31;5035252;28;20061;-56
2023/04/25 05:06:46;;;;;;;3.05;1.10;;;;;;;20.58;52.61;100169.94;5035308;28;20049;-56
2023/04/25 05:09:43;;;;;;;2.70;1.05;;;;;;;20.58;52.67;100162.72;5036247;28;20053;-56
2023/04/25 05:12:11;;;;;;;2.65;0.95;;;;;;;20.58;52.63;100172.63;5036369;28;20072;-55
2023/04/25 05:14:50;;;;;;;2.13;1.35;;;;;;;20.57;52.62;100171.78;5020613;28;20045;-55
2023/04/25 05:17:42;;;;;;;2.10;0.90;;;;;;;20.57;52.61;100169.09;5035757;28;20046;-56
2023/04/25 05:20:20;;;;;;;2.95;0.95;;;;;;;20.57;52.73;100166.41;5035424;28;20046;-56
2023/04/25 05:22:50;;;;;;;2.55;1.30;;;;;;;20.57;52.51;100182.53;5036188;28;20494;-56
2023/04/25 05:25:22;;;;;;;2.05;1.17;;;;;;;20.57;52.52;100177.16;5044261;28;20067;-56
2023/04/25 05:27:52;;;;;;;3.60;1.20;;;;;;;20.56;52.52;100170.09;5055810;28;20060;-56
2023/04/25 05:30:49;;;;;;;2.60;1.10;;;;;;;20.56;52.64;100167.41;5072072;28;20052;-56
2023/04/25 05:33:20;;;;;;;2.03;1.05;;;;;;;20.56;52.68;100170.09;5054927;28;20422;-56
2023/04/25 05:35:48;;;;;;;3.05;1.00;;;;;;;20.56;52.64;100172.78;5054628;28;20052;-56
2023/04/25 05:38:16;;;;;;;2.60;1.00;;;;;;;20.56;52.42;100175.47;5054742;28;20052;-56
2023/04/25 05:41:15;;;;;;;3.00;1.05;;;;;;;20.56;52.61;100178.16;5063434;28;20045;-55
2023/04/25 05:43:59;;;;;;;2.97;0.95;;;;;;;20.55;52.49;100178.31;5054851;28;20053;-55
2023/04/25 05:46:42;;;;;;;2.35;1.17;;;;;;;20.56;52.52;100191.59;5051182;28;20056;-55
2023/04/25 05:49:09;;;;;;;2.67;1.13;;;;;;;20.55;52.64;100189.94;5034831;28;20091;-56
2023/04/25 05:51:53;;;;;;;2.30;0.95;;;;;;;20.56;52.54;100196.97;5035986;28;20050;-56
2023/04/25 05:54:41;;;;;;;2.75;1.30;;;;;;;20.55;52.56;100194.47;5034305;28;20065;-56
2023/04/25 05:57:08;;;;;;;1.75;0.90;;;;;;;20.55;52.45;100200.69;5034464;28;20072;-56
2023/04/25 05:59:35;;;;;;;4.40;1.17;;;;;;;20.55;52.51;100208.75;5034353;28;20049;-56
2023/04/25 06:02:03;;;;;;;2.83;1.02;;;;;;;20.54;52.48;100209.75;5034174;28;20061;-56
2023/04/25 06:04:33;;;;;;;1.95;1.05;;;;;;;20.55;52.45;100211.44;5034071;28;20049;-56
2023/04/25 06:07:01;;;;;;;2.70;1.10;;;;;;;20.55;52.66;100219.50;5034119;28;20057;-56
2023/04/25 06:09:28;;;;;;;2.55;1.20;;;;;;;20.54;52.57;100212.44;5034238;28;20060;-56
2023/04/25 06:11:56;;;;;;;3.75;1.50;;;;;;;20.54;52.38;100209.75;5033815;28;20060;-56
2023/04/25 06:14:23;;;;;;;4.63;1.35;;;;;;;20.53;52.39;100216.09;5033954;28;20061;-56
2023/04/25 06:16:53;;;;;;;3.30;1.42;;;;;;;20.54;52.66;100215.13;5034032;28;20061;-56
2023/04/25 06:19:20;;;;;;;3.53;1.25;;;;;;;20.54;52.55;100223.19;5033817;28;20076;-56
2023/04/25 06:21:48;;;;;;;1.75;0.82;;;;;;;20.54;52.55;100216.94;5033781;28;20049;-55
2023/04/25 06:24:15;;;;;;;2.50;1.20;;;;;;;20.53;52.58;100218.81;5033852;28;20376;-56
2023/04/25 06:26:45;;;;;;;3.72;1.25;;;;;;;20.54;52.58;100223.19;5033725;28;20041;-55
2023/04/25 06:29:12;;;;;;;3.00;1.10;;;;;;;20.54;52.66;100239.34;5033152;28;20415;-55
2023/04/25 06:31:39;;;;;;;3.53;1.02;;;;;;;20.54;52.56;100235.78;5034809;28;20107;-55
2023/04/25 06:34:07;;;;;;;2.58;1.10;;;;;;;20.54;52.42;100242.03;5033895;28;20060;-55
2023/04/25 06:36:37;;;;;;;2.50;1.13;;;;;;;20.54;52.68;100239.34;5035095;28;20060;-55
2023/04/25 06:39:08;;;;;;;2.75;1.10;;;;;;;20.53;52.48;100232.25;5034951;28;20447;-55
2023/04/25 06:41:36;;;;;;;2.22;1.15;;;;;;;20.53;52.60;100243.00;5034419;28;20064;-56
2023/04/25 06:44:06;;;;;;;2.92;0.80;;;;;;;20.54;52.57;100238.47;5033213;28;20053;-56
2023/04/25 06:46:51;;;;;;;2.25;0.95;;;;;;;20.54;52.52;100252.78;5048550;28;20044;-56
2023/04/25 06:49:19;;;;;;;2.28;1.08;;;;;;;20.55;52.87;100253.63;5035719;28;20060;-56
2023/04/25 06:51:47;;;;;;;2.20;1.20;;;;;;;20.56;52.77;100252.63;5033365;28;20076;-56
2023/04/25 06:54:14;;;;;;;1.92;1.05;;;;;;;20.56;52.71;100258.84;5032992;28;20049;-55
2023/04/25 06:56:51;;;;;;;5.60;1.42;;;;;;;20.56;52.61;100261.53;5033352;28;20045;-56
2023/04/25 06:59:19;;;;;;;3.80;1.20;;;;;;;20.57;52.70;100260.53;5033301;28;20060;-56
2023/04/25 07:01:46;;;;;;;2.92;1.20;;;;;;;20.57;52.82;100273.13;5033010;28;20049;-56
2023/04/25 07:04:17;;;;;;;3.72;1.25;;;;;;;20.57;52.67;100278.50;5033319;28;20053;-56
2023/04/25 07:06:50;;;;;;;4.18;1.23;;;;;;;20.57;52.71;100276.66;5033138;28;20076;-56
2023/04/25 07:09:22;;;;;;;2.73;1.23;;;;;;;20.55;52.62;100278.66;5032913;28;20046;-56
2023/04/25 07:11:50;;;;;;;2.75;1.20;;;;;;;20.57;52.72;100281.19;5032941;28;20290;-56
2023/04/25 07:14:18;;;;;;;4.38;1.38;;;;;;;20.56;52.75;100277.66;5033119;28;20443;-56
2023/04/25 07:16:46;;;;;;;3.42;1.77;;;;;;;20.55;53.06;100273.28;5033019;28;20049;-56
2023/04/25 07:19:14;;;;;;;2.95;1.33;;;;;;;20.56;52.94;100277.66;5033260;28;20522;-56
2023/04/25 07:21:42;;;;;;;5.57;1.58;;;;;;;20.56;53.04;100283.03;5032646;28;20068;-55
2023/04/25 07:24:10;;;;;;;2.25;1.05;;;;;;;20.55;52.97;100281.34;5032669;28;20072;-55
2023/04/25 07:26:42;;;;;;;2.88;1.30;;;;;;;20.56;53.01;100282.19;5045143;28;20053;-55
2023/04/25 07:29:31;;;;;;;2.15;1.17;;;;;;;20.56;53.00;100282.19;5053602;28;20067;-56
2023/04/25 07:32:00;;;;;;;3.78;1.25;;;;;;;20.55;53.20;100289.41;5052767;28;20064;-56
2023/04/25 07:34:27;;;;;;;2.47;1.00;;;;;;;20.56;53.29;100292.94;5052463;28;20414;-56
2023/04/25 07:36:54;;;;;;;2.03;1.00;;;;;;;20.56;53.39;100298.31;5053513;28;20036;-56
2023/04/25 07:39:24;;;;;;;3.05;1.08;;;;;;;20.55;53.15;100286.72;5052399;28;20060;-56
2023/04/25 07:41:51;;;;;;;2.75;1.00;;;;;;;20.56;53.40;100295.63;5051643;28;20057;-56
2023/04/25 07:44:25;;;;;;;;;;;;;;;20.56;53.18;100296.47;5052947;28;20044;-56
2023/04/25 07:46:53;;;;;;;2.45;1.02;;;;;;;20.56;53.40;100295.63;5053509;28;19935;-56
2023/04/25 07:49:20;;;;;;;2.53;0.90;;;;;;;20.55;53.32;100305.56;5043457;28;20495;-55
2023/04/25 07:51:49;;;;;;;2.50;1.40;;;;;;;20.55;53.25;100310.09;5049238;28;20059;-56
2023/04/25 07:54:19;;;;;;;3.75;1.50;;;;;;;20.55;53.13;100318.16;5051749;28;20049;-54
2023/04/25 07:56:51;;;;;;;2.22;1.10;;;;;;;20.55;53.51;100327.06;5052581;28;20403;-55
2023/04/25 07:59:26;;;;;;;3.40;1.95;;;;;;;20.55;53.41;100324.38;5051625;28;20049;-56
2023/04/25 08:01:57;;;;;;;2.97;1.60;;;;;;;20.55;53.31;100321.69;5052327;28;20414;-59
2023/04/25 08:04:25;;;;;;;3.40;1.58;;;;;;;20.51;53.11;100333.75;5052244;28;20057;-59
2023/04/25 08:07:04;;;;;;;4.45;1.77;;;;;;;20.45;52.05;100334.31;5051934;28;20060;-59
2023/04/25 08:09:39;;;;;;;2.83;1.10;;;;;;;20.37;52.32;100332.38;5052470;28;20075;-54
2023/04/25 08:12:12;;;;;;;2.00;1.02;;;;;;;20.30;51.89;100339.38;5052150;28;20059;-53
2023/04/25 08:14:40;;;;;;;3.03;1.10;;;;;;;20.24;51.95;100340.78;5052736;28;20053;-53
2023/04/25 08:17:07;;;;;;;2.92;1.08;;;;;;;20.22;51.83;100350.03;5052265;28;20364;-55
2023/04/25 08:19:39;;;;;;;1.60;0.70;;;;;;;20.17;51.26;100347.75;5039994;28;20042;-55
2023/04/25 08:22:12;;;;;;;;;;;;;;;20.15;51.31;100352.44;5052532;28;20053;-55
2023/04/25 08:24:52;;;;;;;1.70;0.50;;;;;;;20.14;51.24;100357.97;5039500;28;19928;-55
2023/04/25 08:27:21;;;;;;;1.90;0.85;;;;;;;20.12;51.31;100363.50;5048047;28;20487;-55
2023/04/25 08:29:48;;;;;;;1.77;0.57;;;;;;;20.10;51.03;100359.28;5031959;28;20387;-54
2023/04/25 08:32:18;;;;;;;2.00;0.68;;;;;;;20.07;50.97;100364.94;5031695;28;20050;-55
2023/04/25 08:34:59;;;;;;;4.28;0.70;;;;;;;20.05;51.19;100369.59;5031646;28;20057;-54
2023/04/25 08:37:26;;;;;;;2.55;0.70;;;;;;;20.05;51.32;100381.19;5031728;28;20403;-55
2023/04/25 08:40:02;;;;;;;1.17;0.43;;;;;;;20.03;51.41;100385.03;5031706;28;20060;-60
2023/04/25 08:42:48;;;;;;;2.65;0.38;;;;;;;20.00;51.13;100378.09;5031963;28;20053;-60
2023/04/25 08:45:15;;;;;;;1.40;0.47;;;;;;;19.98;51.26;100385.47;5031661;28;20045;-60
2023/04/25 08:47:45;;;;;;;1.55;0.60;;;;;;;19.97;51.57;100383.75;5047569;28;20052;-60
2023/04/25 08:50:13;;;;;;;1.25;0.50;;;;;;;19.95;51.93;100394.66;5044252;28;20464;-54
2023/04/25 08:52:45;;;;;;;2.17;0.60;;;;;;;19.96;51.97;100392.81;5032586;28;20061;-55
2023/04/25 08:55:13;;;;;;;1.25;0.63;;;;;;;19.95;51.83;100389.28;5037253;28;20061;-53
2023/04/25 08:57:45;;;;;;;1.00;0.30;;;;;;;19.93;51.57;100398.47;5035684;28;20046;-55
2023/04/25 09:00:12;;;;;;;1.63;0.60;;;;;;;19.93;51.43;100398.47;5036747;28;20387;-60
2023/04/25 09:02:43;;;;;;;0.90;0.40;;;;;;;19.93;51.38;100401.16;5035545;28;20060;-60
2023/04/25 09:05:13;;;;;;;1.58;0.47;;;;;;;19.92;51.17;100402.16;5036876;28;20472;-60
2023/04/25 09:07:41;;;;;;;3.08;0.50;;;;;;;19.93;51.30;100411.91;5035474;28;20046;-60
2023/04/25 09:10:09;;;;;;;1.45;0.35;;;;;;;19.93;51.03;100412.78;5035138;28;20076;-54
2023/04/25 09:12:38;;;;;;;2.22;0.38;;;;;;;19.94;50.92;100403.72;5035130;28;20050;-53
2023/04/25 09:15:10;;;;;;;6.45;0.63;;;;;;;19.93;50.48;100404.72;5034756;28;20058;-54
2023/04/25 09:17:55;;;;;;;1.10;0.60;;;;;;;19.90;49.63;100402.34;5043144;28;20053;-54
2023/04/25 09:20:24;;;;;;;2.72;0.60;;;;;;;19.87;49.55;100404.47;5034779;28;20491;-53
2023/04/25 09:23:05;;;;;;;1.50;0.52;;;;;;;19.84;48.76;100402.91;5034570;28;20053;-53
2023/04/25 09:25:39;;;;;;;1.35;0.40;;;;;;;19.81;48.65;100410.41;5035285;28;20399;-53
2023/04/25 09:28:08;;;;;;;2.38;0.60;;;;;;;19.79;48.41;100412.41;5054083;28;20049;-52
2023/04/25 09:30:36;;;;;;;2.05;0.40;;;;;;;19.76;48.44;100413.53;5054638;28;20053;-53
2023/04/25 09:33:17;;;;;;;3.00;0.55;;;;;;;19.74;48.00;100419.03;5054952;28;20057;-53
2023/04/25 09:35:54;;;;;;;1.77;0.80;;;;;;;19.70;48.21;100416.81;5054410;28;20495;-54
2023/04/25 09:38:42;;;;;;;0.70;0.30;;;;;;;19.70;47.55;100427.53;5054823;28;20375;-54
2023/04/25 09:41:23;;;;;;;1.23;0.45;;;;;;;19.65;46.97;100419.91;5055864;28;20076;-60
2023/04/25 09:43:50;;;;;;;1.35;0.43;;;;;;;19.61;47.39;100426.56;5054533;28;20049;-60
2023/04/25 09:46:20;;;;;;;2.05;0.52;;;;;;;19.60;47.57;100432.88;5055114;28;20056;-60
2023/04/25 09:48:53;;;;;;;2.40;0.50;;;;;;;19.59;47.53;100435.72;5054648;28;20049;-60
2023/04/25 09:51:32;;;;;;;0.80;0.30;;;;;;;19.58;46.62;100431.34;5044064;28;20046;-60
2023/04/25 09:54:00;;;;;;;1.17;0.30;;;;;;;19.58;46.74;100431.34;5035370;28;20053;-60
2023/04/25 09:56:37;;;;;;;1.92;0.90;;;;;;;19.58;46.93;100426.81;5034360;28;20057;-60
2023/04/25 09:59:08;;;;;;;1.60;0.70;;;;;;;19.57;46.41;100419.75;5034124;28;20049;-60
2023/04/25 10:01:41;;;;;;;3.00;0.52;;;;;;;19.56;46.55;100420.72;5035635;28;20499;-60
2023/04/25 10:04:19;;;;;;;3.50;0.63;;;;;;;19.56;46.45;100431.47;5033635;28;20061;-60
2023/04/25 10:07:09;;;;;;;1.30;0.50;;;;;;;19.56;46.70;100430.63;5034350;28;20049;-60
2023/04/25 10:09:39;;;;;;;3.08;0.60;;;;;;;19.54;47.42;100428.09;5035289;28;20495;-60
2023/04/25 10:12:07;;;;;;;1.42;0.65;;;;;;;19.55;46.92;100424.41;5035049;28;20058;-60
2023/04/25 10:14:35;;;;;;;1.23;0.50;;;;;;;19.55;46.61;100434.31;5035350;28;20104;-60
2023/04/25 10:17:02;;;;;;;1.13;0.40;;;;;;;19.55;46.96;100420.88;5035269;28;20045;-60
2023/04/25 10:19:30;;;;;;;0.63;0.28;;;;;;;19.54;46.98;100420.03;5035244;28;20050;-54
2023/04/25 10:22:19;;;;;;;5.10;0.50;;;;;;;19.54;47.19;100422.72;5035123;28;20072;-53
2023/04/25 10:24:47;;;;;;;1.00;0.40;;;;;;;19.54;47.07;100403.94;5034996;28;20048;-52
2023/04/25 10:27:14;;;;;;;0.85;0.30;;;;;;;19.55;46.97;100410.97;5035084;28;20049;-53
2023/04/25 10:29:44;;;;;;;2.33;0.60;;;;;;;19.56;47.12;100407.31;5034822;28;20041;-52
2023/04/25 10:32:12;;;;;;;2.42;0.68;;;;;;;19.58;46.92;100396.44;5034664;28;20071;-50
2023/04/25 10:34:39;;;;;;;0.93;0.43;;;;;;;19.60;46.58;100400.66;5034688;28;20483;-51
2023/04/25 10:37:11;;;;;;;2.42;0.40;;;;;;;19.60;46.90;100389.91;5034952;28;20052;-52
2023/04/25 10:39:42;;;;;;;1.67;0.60;;;;;;;19.62;46.85;100393.34;5034699;28;20370;-53
2023/04/25 10:42:09;;;;;;;1.23;0.47;;;;;;;19.63;47.02;100380.75;5034740;28;20042;-52
2023/04/25 10:44:39;;;;;;;4.30;0.70;;;;;;;19.63;46.61;100386.97;5034757;28;20052;-54
2023/04/25 10:47:08;;;;;;;1.65;0.80;;;;;;;19.65;46.59;100381.47;5033724;28;20407;-52
2023/04/25 10:49:42;;;;;;;1.73;0.50;;;;;;;19.66;46.78;100385.84;5034090;28;20046;-53
2023/04/25 10:52:19;;;;;;;3.50;0.73;;;;;;;19.68;46.76;100383.84;5033500;28;20392;-52
2023/04/25 10:54:54;;;;;;;1.38;0.40;;;;;;;19.70;46.41;100379.19;5033315;28;20041;-52
2023/04/25 10:57:39;;;;;;;1.80;0.70;;;;;;;19.73;46.72;100377.06;5034244;28;20041;-53
2023/04/25 11:00:11;;;;;;;1.98;0.68;;;;;;;19.74;47.13;100373.38;5034020;28;20041;-53
2023/04/25 11:02:42;;;;;;;2.28;0.57;;;;;;;19.76;47.70;100363.34;5033691;28;20483;-52
2023/04/25 11:05:17;;;;;;;1.65;0.75;;;;;;;19.76;47.47;100368.69;5033821;28;20056;-53
2023/04/25 11:07:54;;;;;;;3.70;1.05;;;;;;;19.80;47.70;100368.41;5033392;28;20052;-54
2023/04/25 11:10:36;;;;;;;3.35;0.55;;;;;;;19.79;47.18;100361.38;5034085;28;20046;-60
2023/04/25 11:13:04;;;;;;;1.88;0.73;;;;;;;19.81;46.84;100367.41;5033869;28;20052;-60
2023/04/25 11:15:32;;;;;;;2.80;1.02;;;;;;;19.82;47.08;100377.19;5033753;28;20053;-61
2023/04/25 11:17:59;;;;;;;2.15;0.75;;;;;;;19.83;48.21;100370.81;5033882;28;20049;-60
2023/04/25 11:20:28;;;;;;;5.63;0.70;;;;;;;19.81;47.77;100370.97;5033698;28;20392;-52
2023/04/25 11:22:59;;;;;;;2.60;0.75;;;;;;;19.81;47.33;100376.34;5032113;28;20076;-51
2023/04/25 11:25:28;;;;;;;1.90;0.60;;;;;;;19.80;47.43;100365.72;5033574;28;20049;-52
2023/04/25 11:27:57;;;;;;;1.67;0.50;;;;;;;19.79;47.56;100364.03;5046738;28;20064;-53
2023/04/25 11:30:26;;;;;;;3.65;0.85;;;;;;;19.79;47.82;100358.69;5053779;28;20048;-53
2023/04/25 11:32:56;;;;;;;3.88;1.35;;;;;;;19.79;47.92;100369.41;5053724;28;20036;-52
2023/04/25 11:35:25;;;;;;;4.03;1.20;;;;;;;19.80;47.66;100376.47;5053788;28;20045;-53
2023/04/25 11:37:52;;;;;;;3.10;0.82;;;;;;;19.80;47.41;100366.56;5053341;28;20045;-53
2023/04/25 11:40:20;;;;;;;2.22;0.80;;;;;;;19.78;46.97;100370.41;5053547;28;20045;-60
2023/04/25 11:42:47;;;;;;;1.65;0.77;;;;;;;19.76;47.22;100360.66;5053585;28;20382;-51
2023/04/25 11:45:15;;;;;;;6.72;0.95;;;;;;;19.77;47.65;100374.94;5053614;28;20059;-53